sensor_id;sensor_type;location;lat;lon;timestamp;pressure;altitude;pressure_sealevel;temperature;humidity
45991;BME280;31721;41.740;-88.000;2023-03-03T00:02:12;98816.22;;;2.95;47.15
45991;BME280;31721;41.740;-88.000;2023-03-03T00:04:40;98824.21;;;2.88;47.16
45991;BME280;31721;41.740;-88.000;2023-03-03T00:07:08;98826.71;;;3.00;47.02
45991;BME280;31721;41.740;-88.000;2023-03-03T00:09:35;98831.01;;;2.85;47.13
45991;BME280;31721;41.740;-88.000;2023-03-03T00:12:19;98829.77;;;2.76;47.48
45991;BME280;31721;41.740;-88.000;2023-03-03T00:14:48;98828.69;;;2.73;47.19
45991;BME280;31721;41.740;-88.000;2023-03-03T00:17:21;98828.93;;;2.66;47.53
45991;BME280;31721;41.740;-88.000;2023-03-03T00:19:50;98832.73;;;2.67;47.41
45991;BME280;31721;41.740;-88.000;2023-03-03T00:22:27;98825.43;;;2.55;47.20
45991;BME280;31721;41.740;-88.000;2023-03-03T00:24:58;98821.13;;;2.68;47.45
45991;BME280;31721;41.740;-88.000;2023-03-03T00:27:29;98821.71;;;2.46;47.61
45991;BME280;31721;41.740;-88.000;2023-03-03T00:29:59;98826.54;;;2.66;47.37
45991;BME280;31721;41.740;-88.000;2023-03-03T00:32:34;98836.51;;;2.30;47.62
45991;BME280;31721;41.740;-88.000;2023-03-03T00:35:22;98836.15;;;2.59;47.50
45991;BME280;31721;41.740;-88.000;2023-03-03T00:37:54;98835.16;;;2.54;47.60
45991;BME280;31721;41.740;-88.000;2023-03-03T00:40:24;98836.12;;;2.33;47.81
45991;BME280;31721;41.740;-88.000;2023-03-03T00:42:54;98841.70;;;2.38;47.60
45991;BME280;31721;41.740;-88.000;2023-03-03T00:45:29;98846.44;;;2.32;47.79
45991;BME280;31721;41.740;-88.000;2023-03-03T00:47:58;98850.72;;;2.47;47.74
45991;BME280;31721;41.740;-88.000;2023-03-03T00:50:33;98842.88;;;2.42;47.69
45991;BME280;31721;41.740;-88.000;2023-03-03T00:53:05;98840.11;;;2.14;47.59
45991;BME280;31721;41.740;-88.000;2023-03-03T00:55:34;98841.88;;;2.45;47.83
45991;BME280;31721;41.740;-88.000;2023-03-03T00:58:03;98841.50;;;2.35;47.59
45991;BME280;31721;41.740;-88.000;2023-03-03T01:00:32;98844.93;;;2.25;47.64
45991;BME280;31721;41.740;-88.000;2023-03-03T01:03:02;98845.68;;;2.34;47.66
45991;BME280;31721;41.740;-88.000;2023-03-03T01:05:30;98848.96;;;2.23;47.82
45991;BME280;31721;41.740;-88.000;2023-03-03T01:07:58;98844.21;;;2.18;47.98
45991;BME280;31721;41.740;-88.000;2023-03-03T01:10:27;98843.57;;;2.29;47.95
45991;BME280;31721;41.740;-88.000;2023-03-03T01:12:57;98841.13;;;2.09;47.93
45991;BME280;31721;41.740;-88.000;2023-03-03T01:15:25;98839.36;;;2.06;48.10
45991;BME280;31721;41.740;-88.000;2023-03-03T01:17:54;98851.03;;;2.13;48.18
45991;BME280;31721;41.740;-88.000;2023-03-03T01:20:22;98852.16;;;2.10;47.88
45991;BME280;31721;41.740;-88.000;2023-03-03T01:22:50;98844.36;;;1.96;48.18
45991;BME280;31721;41.740;-88.000;2023-03-03T01:25:17;98835.93;;;1.90;48.18
45991;BME280;31721;41.740;-88.000;2023-03-03T01:27:45;98836.73;;;1.90;48.18
45991;BME280;31721;41.740;-88.000;2023-03-03T01:30:14;98834.23;;;1.98;48.45
45991;BME280;31721;41.740;-88.000;2023-03-03T01:32:42;98830.91;;;1.88;48.69
45991;BME280;31721;41.740;-88.000;2023-03-03T01:35:10;98827.49;;;1.79;48.37
45991;BME280;31721;41.740;-88.000;2023-03-03T01:37:38;98833.25;;;1.91;48.34
45991;BME280;31721;41.740;-88.000;2023-03-03T01:40:11;98837.93;;;1.87;48.30
45991;BME280;31721;41.740;-88.000;2023-03-03T01:42:40;98841.66;;;1.88;48.32
45991;BME280;31721;41.740;-88.000;2023-03-03T01:45:14;98840.30;;;1.86;48.51
45991;BME280;31721;41.740;-88.000;2023-03-03T01:47:46;98841.28;;;1.89;48.38
45991;BME280;31721;41.740;-88.000;2023-03-03T01:50:21;98834.93;;;1.72;49.01
45991;BME280;31721;41.740;-88.000;2023-03-03T01:52:53;98831.05;;;1.72;49.43
45991;BME280;31721;41.740;-88.000;2023-03-03T01:55:25;98824.68;;;1.88;48.96
45991;BME280;31721;41.740;-88.000;2023-03-03T01:57:58;98819.84;;;1.96;48.92
45991;BME280;31721;41.740;-88.000;2023-03-03T02:00:29;98815.65;;;1.85;48.98
45991;BME280;31721;41.740;-88.000;2023-03-03T02:02:58;98813.67;;;1.94;48.88
45991;BME280;31721;41.740;-88.000;2023-03-03T02:05:27;98822.64;;;1.98;48.98
45991;BME280;31721;41.740;-88.000;2023-03-03T02:07:56;98820.43;;;1.92;48.96
45991;BME280;31721;41.740;-88.000;2023-03-03T02:10:24;98807.96;;;1.88;49.18
45991;BME280;31721;41.740;-88.000;2023-03-03T02:12:54;98807.15;;;2.05;49.45
45991;BME280;31721;41.740;-88.000;2023-03-03T02:15:25;98811.81;;;1.77;49.43
45991;BME280;31721;41.740;-88.000;2023-03-03T02:17:55;98817.07;;;1.78;49.40
45991;BME280;31721;41.740;-88.000;2023-03-03T02:20:32;98817.05;;;1.85;49.12
45991;BME280;31721;41.740;-88.000;2023-03-03T02:23:08;98818.31;;;1.77;49.45
45991;BME280;31721;41.740;-88.000;2023-03-03T02:25:45;98821.40;;;1.78;49.41
45991;BME280;31721;41.740;-88.000;2023-03-03T02:28:16;98802.94;;;1.90;49.44
45991;BME280;31721;41.740;-88.000;2023-03-03T02:30:43;98785.53;;;1.92;49.37
45991;BME280;31721;41.740;-88.000;2023-03-03T02:33:12;98777.64;;;1.89;49.36
45991;BME280;31721;41.740;-88.000;2023-03-03T02:35:40;98781.14;;;1.81;49.45
45991;BME280;31721;41.740;-88.000;2023-03-03T02:38:15;98789.20;;;1.89;49.71
45991;BME280;31721;41.740;-88.000;2023-03-03T02:40:52;98789.58;;;1.79;49.50
45991;BME280;31721;41.740;-88.000;2023-03-03T02:43:25;98798.92;;;1.78;49.78
45991;BME280;31721;41.740;-88.000;2023-03-03T02:45:55;98813.72;;;1.96;49.59
45991;BME280;31721;41.740;-88.000;2023-03-03T02:48:24;98826.81;;;1.81;49.68
45991;BME280;31721;41.740;-88.000;2023-03-03T02:50:51;98827.95;;;1.94;49.78
45991;BME280;31721;41.740;-88.000;2023-03-03T02:53:19;98813.87;;;1.93;49.57
45991;BME280;31721;41.740;-88.000;2023-03-03T02:55:47;98803.26;;;1.90;49.70
45991;BME280;31721;41.740;-88.000;2023-03-03T02:58:14;98803.16;;;1.86;49.68
45991;BME280;31721;41.740;-88.000;2023-03-03T03:00:42;98802.05;;;1.90;49.57
45991;BME280;31721;41.740;-88.000;2023-03-03T03:03:10;98798.41;;;1.73;50.29
45991;BME280;31721;41.740;-88.000;2023-03-03T03:05:38;98799.43;;;1.76;49.76
45991;BME280;31721;41.740;-88.000;2023-03-03T03:08:06;98796.55;;;1.81;49.44
45991;BME280;31721;41.740;-88.000;2023-03-03T03:10:35;98797.91;;;1.77;49.67
45991;BME280;31721;41.740;-88.000;2023-03-03T03:13:03;98800.17;;;1.76;49.84
45991;BME280;31721;41.740;-88.000;2023-03-03T03:15:31;98798.17;;;1.65;49.86
45991;BME280;31721;41.740;-88.000;2023-03-03T03:17:59;98791.21;;;1.53;49.76
45991;BME280;31721;41.740;-88.000;2023-03-03T03:20:27;98783.70;;;1.31;50.58
45991;BME280;31721;41.740;-88.000;2023-03-03T03:22:55;98772.95;;;1.39;50.35
45991;BME280;31721;41.740;-88.000;2023-03-03T03:25:22;98763.40;;;1.31;49.99
45991;BME280;31721;41.740;-88.000;2023-03-03T03:27:50;98756.84;;;1.39;50.25
45991;BME280;31721;41.740;-88.000;2023-03-03T03:30:18;98747.58;;;1.40;50.09
45991;BME280;31721;41.740;-88.000;2023-03-03T03:32:46;98738.04;;;1.39;50.22
45991;BME280;31721;41.740;-88.000;2023-03-03T03:35:14;98721.23;;;1.27;50.75
45991;BME280;31721;41.740;-88.000;2023-03-03T03:37:41;98722.48;;;1.24;50.31
45991;BME280;31721;41.740;-88.000;2023-03-03T03:40:10;98732.15;;;1.47;50.96
45991;BME280;31721;41.740;-88.000;2023-03-03T03:42:38;98741.51;;;1.16;50.89
45991;BME280;31721;41.740;-88.000;2023-03-03T03:45:07;98737.31;;;1.28;50.95
45991;BME280;31721;41.740;-88.000;2023-03-03T03:47:35;98728.98;;;1.19;50.89
45991;BME280;31721;41.740;-88.000;2023-03-03T03:50:03;98724.44;;;1.18;51.02
45991;BME280;31721;41.740;-88.000;2023-03-03T03:52:31;98728.74;;;1.27;51.29
45991;BME280;31721;41.740;-88.000;2023-03-03T03:54:59;98737.83;;;1.25;51.18
45991;BME280;31721;41.740;-88.000;2023-03-03T03:57:26;98734.76;;;1.10;51.60
45991;BME280;31721;41.740;-88.000;2023-03-03T03:59:54;98724.31;;;1.22;51.34
45991;BME280;31721;41.740;-88.000;2023-03-03T04:02:22;98711.77;;;1.00;52.23
45991;BME280;31721;41.740;-88.000;2023-03-03T04:04:50;98705.99;;;1.13;51.19
45991;BME280;31721;41.740;-88.000;2023-03-03T04:07:17;98712.48;;;1.11;52.00
45991;BME280;31721;41.740;-88.000;2023-03-03T04:09:45;98719.90;;;1.06;51.35
45991;BME280;31721;41.740;-88.000;2023-03-03T04:12:12;98718.22;;;1.19;51.41
45991;BME280;31721;41.740;-88.000;2023-03-03T04:14:40;98707.48;;;1.29;51.37
45991;BME280;31721;41.740;-88.000;2023-03-03T04:17:08;98694.51;;;1.29;51.19
45991;BME280;31721;41.740;-88.000;2023-03-03T04:19:37;98673.97;;;1.49;51.47
45991;BME280;31721;41.740;-88.000;2023-03-03T04:22:05;98675.68;;;1.38;51.54
45991;BME280;31721;41.740;-88.000;2023-03-03T04:24:32;98673.41;;;1.29;51.51
45991;BME280;31721;41.740;-88.000;2023-03-03T04:27:00;98672.74;;;1.12;52.00
45991;BME280;31721;41.740;-88.000;2023-03-03T04:29:27;98663.03;;;1.30;51.75
45991;BME280;31721;41.740;-88.000;2023-03-03T04:31:55;98653.26;;;0.95;52.32
45991;BME280;31721;41.740;-88.000;2023-03-03T04:34:23;98656.53;;;1.07;52.04
45991;BME280;31721;41.740;-88.000;2023-03-03T04:36:50;98660.71;;;1.10;52.31
45991;BME280;31721;41.740;-88.000;2023-03-03T04:39:17;98649.49;;;1.22;52.51
45991;BME280;31721;41.740;-88.000;2023-03-03T04:41:45;98644.07;;;1.11;52.43
45991;BME280;31721;41.740;-88.000;2023-03-03T04:44:13;98628.01;;;0.97;52.88
45991;BME280;31721;41.740;-88.000;2023-03-03T04:46:41;98619.47;;;1.03;52.16
45991;BME280;31721;41.740;-88.000;2023-03-03T04:49:09;98629.18;;;1.19;51.90
45991;BME280;31721;41.740;-88.000;2023-03-03T04:51:37;98629.46;;;1.34;52.41
45991;BME280;31721;41.740;-88.000;2023-03-03T04:54:05;98628.05;;;1.41;52.15
45991;BME280;31721;41.740;-88.000;2023-03-03T04:56:32;98621.98;;;1.27;52.82
45991;BME280;31721;41.740;-88.000;2023-03-03T04:59:00;98614.20;;;1.32;51.91
45991;BME280;31721;41.740;-88.000;2023-03-03T05:01:27;98603.52;;;1.08;52.25
45991;BME280;31721;41.740;-88.000;2023-03-03T05:03:55;98602.61;;;1.33;52.36
45991;BME280;31721;41.740;-88.000;2023-03-03T05:06:22;98610.46;;;1.21;52.64
45991;BME280;31721;41.740;-88.000;2023-03-03T05:08:50;98620.69;;;1.18;52.26
45991;BME280;31721;41.740;-88.000;2023-03-03T05:11:17;98630.37;;;1.24;52.20
45991;BME280;31721;41.740;-88.000;2023-03-03T05:13:45;98626.23;;;1.45;52.09
45991;BME280;31721;41.740;-88.000;2023-03-03T05:16:13;98623.39;;;1.34;52.31
45991;BME280;31721;41.740;-88.000;2023-03-03T05:18:40;98625.27;;;1.53;52.32
45991;BME280;31721;41.740;-88.000;2023-03-03T05:21:08;98621.86;;;1.59;51.94
45991;BME280;31721;41.740;-88.000;2023-03-03T05:23:36;98603.75;;;1.41;52.13
45991;BME280;31721;41.740;-88.000;2023-03-03T05:26:04;98590.19;;;1.42;51.91
45991;BME280;31721;41.740;-88.000;2023-03-03T05:28:32;98589.28;;;1.56;52.00
45991;BME280;31721;41.740;-88.000;2023-03-03T05:31:00;98592.14;;;1.50;52.15
45991;BME280;31721;41.740;-88.000;2023-03-03T05:33:27;98579.71;;;1.31;52.68
45991;BME280;31721;41.740;-88.000;2023-03-03T05:35:55;98563.79;;;1.42;52.50
45991;BME280;31721;41.740;-88.000;2023-03-03T05:38:24;98574.08;;;1.52;52.25
45991;BME280;31721;41.740;-88.000;2023-03-03T05:40:52;98586.86;;;1.41;52.47
45991;BME280;31721;41.740;-88.000;2023-03-03T05:43:19;98589.96;;;1.27;52.23
45991;BME280;31721;41.740;-88.000;2023-03-03T05:45:47;98585.43;;;1.30;52.77
45991;BME280;31721;41.740;-88.000;2023-03-03T05:48:14;98592.40;;;1.36;52.48
45991;BME280;31721;41.740;-88.000;2023-03-03T05:50:42;98607.57;;;1.47;52.43
45991;BME280;31721;41.740;-88.000;2023-03-03T05:53:10;98618.22;;;1.32;52.39
45991;BME280;31721;41.740;-88.000;2023-03-03T05:55:37;98619.29;;;1.46;52.21
45991;BME280;31721;41.740;-88.000;2023-03-03T05:58:04;98620.66;;;1.48;52.23
45991;BME280;31721;41.740;-88.000;2023-03-03T06:00:32;98620.75;;;1.21;52.36
45991;BME280;31721;41.740;-88.000;2023-03-03T06:03:00;98625.04;;;1.27;52.46
45991;BME280;31721;41.740;-88.000;2023-03-03T06:05:27;98626.29;;;1.40;52.25
45991;BME280;31721;41.740;-88.000;2023-03-03T06:07:55;98607.69;;;1.36;52.24
45991;BME280;31721;41.740;-88.000;2023-03-03T06:10:22;98600.98;;;1.47;51.99
45991;BME280;31721;41.740;-88.000;2023-03-03T06:12:50;98608.40;;;1.32;52.30
45991;BME280;31721;41.740;-88.000;2023-03-03T06:15:18;98614.36;;;1.47;52.25
45991;BME280;31721;41.740;-88.000;2023-03-03T06:17:45;98613.06;;;1.35;52.34
45991;BME280;31721;41.740;-88.000;2023-03-03T06:20:13;98604.41;;;1.43;52.36
45991;BME280;31721;41.740;-88.000;2023-03-03T06:22:40;98597.97;;;1.40;52.45
45991;BME280;31721;41.740;-88.000;2023-03-03T06:25:08;98599.62;;;1.61;52.48
45991;BME280;31721;41.740;-88.000;2023-03-03T06:27:36;98606.19;;;1.56;52.47
45991;BME280;31721;41.740;-88.000;2023-03-03T06:30:06;98613.08;;;1.59;52.51
45991;BME280;31721;41.740;-88.000;2023-03-03T06:32:34;98619.04;;;1.77;52.36
45991;BME280;31721;41.740;-88.000;2023-03-03T06:35:01;98611.30;;;1.73;52.38
45991;BME280;31721;41.740;-88.000;2023-03-03T06:37:29;98613.35;;;1.75;52.36
45991;BME280;31721;41.740;-88.000;2023-03-03T06:39:56;98622.52;;;1.78;52.35
45991;BME280;31721;41.740;-88.000;2023-03-03T06:42:24;98616.66;;;1.78;52.30
45991;BME280;31721;41.740;-88.000;2023-03-03T06:44:51;98610.71;;;1.79;52.23
45991;BME280;31721;41.740;-88.000;2023-03-03T06:47:19;98620.63;;;1.71;52.24
45991;BME280;31721;41.740;-88.000;2023-03-03T06:49:47;98618.47;;;1.73;52.34
45991;BME280;31721;41.740;-88.000;2023-03-03T06:52:18;98600.25;;;1.82;52.36
45991;BME280;31721;41.740;-88.000;2023-03-03T06:54:45;98598.80;;;1.71;52.39
45991;BME280;31721;41.740;-88.000;2023-03-03T06:57:17;98595.66;;;1.76;52.53
45991;BME280;31721;41.740;-88.000;2023-03-03T06:59:50;98597.41;;;1.79;52.53
45991;BME280;31721;41.740;-88.000;2023-03-03T07:02:18;98598.54;;;1.80;52.50
45991;BME280;31721;41.740;-88.000;2023-03-03T07:04:48;98593.08;;;1.75;52.39
45991;BME280;31721;41.740;-88.000;2023-03-03T07:07:19;98598.14;;;1.75;52.51
45991;BME280;31721;41.740;-88.000;2023-03-03T07:09:48;98584.16;;;1.75;52.55
45991;BME280;31721;41.740;-88.000;2023-03-03T07:12:18;98574.53;;;1.79;52.67
45991;BME280;31721;41.740;-88.000;2023-03-03T07:14:49;98573.41;;;1.79;52.50
45991;BME280;31721;41.740;-88.000;2023-03-03T07:17:19;98562.49;;;1.90;52.70
45991;BME280;31721;41.740;-88.000;2023-03-03T07:19:47;98556.33;;;1.88;52.71
45991;BME280;31721;41.740;-88.000;2023-03-03T07:22:17;98549.18;;;1.89;52.84
45991;BME280;31721;41.740;-88.000;2023-03-03T07:24:47;98545.00;;;1.90;52.85
45991;BME280;31721;41.740;-88.000;2023-03-03T07:27:21;98535.59;;;1.76;52.83
45991;BME280;31721;41.740;-88.000;2023-03-03T07:29:51;98533.11;;;1.65;52.69
45991;BME280;31721;41.740;-88.000;2023-03-03T07:32:25;98529.15;;;1.86;53.02
45991;BME280;31721;41.740;-88.000;2023-03-03T07:34:54;98511.24;;;1.77;52.94
45991;BME280;31721;41.740;-88.000;2023-03-03T07:37:30;98500.54;;;1.73;53.05
45991;BME280;31721;41.740;-88.000;2023-03-03T07:40:06;98477.52;;;1.79;53.17
45991;BME280;31721;41.740;-88.000;2023-03-03T07:42:51;98457.78;;;1.62;53.64
45991;BME280;31721;41.740;-88.000;2023-03-03T07:45:25;98460.81;;;1.83;53.27
45991;BME280;31721;41.740;-88.000;2023-03-03T07:47:58;98455.21;;;1.80;52.99
45991;BME280;31721;41.740;-88.000;2023-03-03T07:50:27;98447.48;;;1.77;53.08
45991;BME280;31721;41.740;-88.000;2023-03-03T07:52:57;98441.69;;;1.83;53.15
45991;BME280;31721;41.740;-88.000;2023-03-03T07:55:31;98428.54;;;1.71;53.24
45991;BME280;31721;41.740;-88.000;2023-03-03T07:58:19;98412.01;;;1.60;53.50
45991;BME280;31721;41.740;-88.000;2023-03-03T08:01:36;98402.15;;;1.81;53.44
45991;BME280;31721;41.740;-88.000;2023-03-03T08:04:14;98371.33;;;1.77;53.21
45991;BME280;31721;41.740;-88.000;2023-03-03T08:06:48;98364.88;;;1.89;53.35
45991;BME280;31721;41.740;-88.000;2023-03-03T08:09:29;98361.41;;;1.76;53.48
45991;BME280;31721;41.740;-88.000;2023-03-03T08:12:07;98351.39;;;1.64;53.42
45991;BME280;31721;41.740;-88.000;2023-03-03T08:14:37;98347.67;;;1.73;53.58
45991;BME280;31721;41.740;-88.000;2023-03-03T08:17:13;98346.40;;;1.61;53.47
45991;BME280;31721;41.740;-88.000;2023-03-03T08:19:44;98342.59;;;1.68;53.59
45991;BME280;31721;41.740;-88.000;2023-03-03T08:22:15;98347.06;;;1.76;53.81
45991;BME280;31721;41.740;-88.000;2023-03-03T08:24:44;98338.36;;;1.83;53.89
45991;BME280;31721;41.740;-88.000;2023-03-03T08:27:11;98324.14;;;1.59;54.17
45991;BME280;31721;41.740;-88.000;2023-03-03T08:29:39;98321.34;;;1.73;53.96
45991;BME280;31721;41.740;-88.000;2023-03-03T08:32:06;98315.17;;;1.77;53.94
45991;BME280;31721;41.740;-88.000;2023-03-03T08:34:34;98314.23;;;1.80;53.90
45991;BME280;31721;41.740;-88.000;2023-03-03T08:37:02;98304.00;;;1.72;53.99
45991;BME280;31721;41.740;-88.000;2023-03-03T08:39:29;98311.99;;;1.74;53.96
45991;BME280;31721;41.740;-88.000;2023-03-03T08:41:57;98306.93;;;1.56;54.36
45991;BME280;31721;41.740;-88.000;2023-03-03T08:44:24;98311.28;;;1.69;54.16
45991;BME280;31721;41.740;-88.000;2023-03-03T08:46:52;98310.21;;;1.74;54.08
45991;BME280;31721;41.740;-88.000;2023-03-03T08:49:20;98306.85;;;1.76;54.20
45991;BME280;31721;41.740;-88.000;2023-03-03T08:51:48;98300.95;;;1.70;54.32
45991;BME280;31721;41.740;-88.000;2023-03-03T08:54:16;98295.12;;;1.77;54.36
45991;BME280;31721;41.740;-88.000;2023-03-03T08:56:44;98281.08;;;1.84;54.52
45991;BME280;31721;41.740;-88.000;2023-03-03T08:59:11;98279.39;;;1.78;54.41
45991;BME280;31721;41.740;-88.000;2023-03-03T09:01:39;98267.35;;;1.57;54.70
45991;BME280;31721;41.740;-88.000;2023-03-03T09:04:06;98272.80;;;1.73;54.66
45991;BME280;31721;41.740;-88.000;2023-03-03T09:06:34;98258.71;;;1.65;54.72
45991;BME280;31721;41.740;-88.000;2023-03-03T09:09:02;98253.98;;;1.65;54.67
45991;BME280;31721;41.740;-88.000;2023-03-03T09:11:30;98240.04;;;1.66;54.47
45991;BME280;31721;41.740;-88.000;2023-03-03T09:14:06;98228.94;;;1.76;54.71
45991;BME280;31721;41.740;-88.000;2023-03-03T09:16:38;98225.47;;;1.60;54.69
45991;BME280;31721;41.740;-88.000;2023-03-03T09:19:26;98226.94;;;1.49;55.29
45991;BME280;31721;41.740;-88.000;2023-03-03T09:21:55;98223.81;;;1.59;55.15
45991;BME280;31721;41.740;-88.000;2023-03-03T09:24:25;98230.46;;;1.65;55.42
45991;BME280;31721;41.740;-88.000;2023-03-03T09:26:53;98225.33;;;1.67;54.94
45991;BME280;31721;41.740;-88.000;2023-03-03T09:29:25;98218.35;;;1.59;55.00
45991;BME280;31721;41.740;-88.000;2023-03-03T09:31:55;98207.76;;;1.61;54.90
45991;BME280;31721;41.740;-88.000;2023-03-03T09:34:24;98207.10;;;1.65;55.33
45991;BME280;31721;41.740;-88.000;2023-03-03T09:36:54;98210.63;;;1.61;55.14
45991;BME280;31721;41.740;-88.000;2023-03-03T09:39:24;98209.09;;;1.60;55.48
45991;BME280;31721;41.740;-88.000;2023-03-03T09:42:11;98204.36;;;1.55;55.26
45991;BME280;31721;41.740;-88.000;2023-03-03T09:44:59;98192.93;;;1.40;55.67
45991;BME280;31721;41.740;-88.000;2023-03-03T09:47:42;98192.93;;;1.49;55.35
45991;BME280;31721;41.740;-88.000;2023-03-03T09:50:21;98188.46;;;1.46;55.78
45991;BME280;31721;41.740;-88.000;2023-03-03T09:52:55;98184.61;;;1.61;55.77
45991;BME280;31721;41.740;-88.000;2023-03-03T09:55:38;98172.38;;;1.44;55.69
45991;BME280;31721;41.740;-88.000;2023-03-03T09:58:22;98173.06;;;1.31;55.60
45991;BME280;31721;41.740;-88.000;2023-03-03T10:01:00;98172.55;;;1.11;56.15
45991;BME280;31721;41.740;-88.000;2023-03-03T10:04:10;98156.47;;;1.26;56.33
45991;BME280;31721;41.740;-88.000;2023-03-03T10:06:44;98158.06;;;1.51;55.74
45991;BME280;31721;41.740;-88.000;2023-03-03T10:09:46;98160.37;;;1.47;55.86
45991;BME280;31721;41.740;-88.000;2023-03-03T10:12:21;98147.86;;;1.65;55.69
45991;BME280;31721;41.740;-88.000;2023-03-03T10:15:03;98152.88;;;1.60;55.78
45991;BME280;31721;41.740;-88.000;2023-03-03T10:17:47;98165.97;;;1.67;55.84
45991;BME280;31721;41.740;-88.000;2023-03-03T10:20:27;98155.76;;;1.69;55.81
45991;BME280;31721;41.740;-88.000;2023-03-03T10:23:06;98148.68;;;1.62;56.44
45991;BME280;31721;41.740;-88.000;2023-03-03T10:25:44;98148.96;;;1.77;55.92
45991;BME280;31721;41.740;-88.000;2023-03-03T10:28:28;98159.55;;;1.64;55.77
45991;BME280;31721;41.740;-88.000;2023-03-03T10:31:09;98162.01;;;1.63;55.91
45991;BME280;31721;41.740;-88.000;2023-03-03T10:33:45;98153.32;;;1.85;55.89
45991;BME280;31721;41.740;-88.000;2023-03-03T10:36:54;98145.19;;;1.76;55.89
45991;BME280;31721;41.740;-88.000;2023-03-03T10:39:37;98158.96;;;1.77;55.90
45991;BME280;31721;41.740;-88.000;2023-03-03T10:42:18;98145.46;;;1.55;56.02
45991;BME280;31721;41.740;-88.000;2023-03-03T10:44:59;98130.04;;;1.70;56.41
45991;BME280;31721;41.740;-88.000;2023-03-03T10:47:47;98139.03;;;1.83;56.13
45991;BME280;31721;41.740;-88.000;2023-03-03T10:50:25;98159.69;;;1.75;55.99
45991;BME280;31721;41.740;-88.000;2023-03-03T10:53:09;98162.95;;;1.99;56.05
45991;BME280;31721;41.740;-88.000;2023-03-03T10:55:47;98164.42;;;1.89;55.89
45991;BME280;31721;41.740;-88.000;2023-03-03T10:58:38;98158.02;;;1.88;56.21
45991;BME280;31721;41.740;-88.000;2023-03-03T11:01:15;98171.70;;;2.02;56.14
45991;BME280;31721;41.740;-88.000;2023-03-03T11:04:03;98163.29;;;2.05;56.31
45991;BME280;31721;41.740;-88.000;2023-03-03T11:06:44;98156.99;;;2.02;56.25
45991;BME280;31721;41.740;-88.000;2023-03-03T11:09:26;98152.96;;;2.04;56.31
45991;BME280;31721;41.740;-88.000;2023-03-03T11:11:59;98139.07;;;2.09;55.99
45991;BME280;31721;41.740;-88.000;2023-03-03T11:14:35;98147.12;;;2.16;56.19
45991;BME280;31721;41.740;-88.000;2023-03-03T11:17:11;98150.11;;;1.98;56.05
45991;BME280;31721;41.740;-88.000;2023-03-03T11:19:53;98140.90;;;2.12;56.00
45991;BME280;31721;41.740;-88.000;2023-03-03T11:22:33;98139.63;;;2.20;56.26
45991;BME280;31721;41.740;-88.000;2023-03-03T11:25:09;98139.09;;;2.11;56.04
45991;BME280;31721;41.740;-88.000;2023-03-03T11:27:55;98137.85;;;2.21;56.23
45991;BME280;31721;41.740;-88.000;2023-03-03T11:30:33;98126.49;;;2.27;56.19
45991;BME280;31721;41.740;-88.000;2023-03-03T11:33:08;98128.59;;;2.24;56.04
45991;BME280;31721;41.740;-88.000;2023-03-03T11:35:43;98115.51;;;2.07;56.12
45991;BME280;31721;41.740;-88.000;2023-03-03T11:38:29;98101.64;;;1.83;56.38
45991;BME280;31721;41.740;-88.000;2023-03-03T11:41:03;98088.16;;;1.89;56.60
45991;BME280;31721;41.740;-88.000;2023-03-03T11:43:39;98077.85;;;1.94;56.31
45991;BME280;31721;41.740;-88.000;2023-03-03T11:46:12;98075.95;;;2.00;56.33
45991;BME280;31721;41.740;-88.000;2023-03-03T11:48:47;98061.94;;;1.82;56.92
45991;BME280;31721;41.740;-88.000;2023-03-03T11:51:25;98051.64;;;1.86;56.28
45991;BME280;31721;41.740;-88.000;2023-03-03T11:54:02;98052.79;;;2.10;56.82
45991;BME280;31721;41.740;-88.000;2023-03-03T11:56:38;98037.71;;;1.79;57.08
45991;BME280;31721;41.740;-88.000;2023-03-03T11:59:24;98026.46;;;1.89;56.87
45991;BME280;31721;41.740;-88.000;2023-03-03T12:01:56;98023.50;;;1.91;56.81
45991;BME280;31721;41.740;-88.000;2023-03-03T12:04:30;98021.34;;;1.57;57.21
45991;BME280;31721;41.740;-88.000;2023-03-03T12:07:12;98022.47;;;1.74;57.61
45991;BME280;31721;41.740;-88.000;2023-03-03T12:09:49;98012.83;;;1.58;57.12
45991;BME280;31721;41.740;-88.000;2023-03-03T12:12:23;97989.87;;;1.64;56.54
45991;BME280;31721;41.740;-88.000;2023-03-03T12:15:03;97961.48;;;1.72;58.11
45991;BME280;31721;41.740;-88.000;2023-03-03T12:17:43;97940.30;;;1.56;57.16
45991;BME280;31721;41.740;-88.000;2023-03-03T12:20:23;97932.62;;;1.70;57.09
45991;BME280;31721;41.740;-88.000;2023-03-03T12:23:03;97924.31;;;1.41;58.15
45991;BME280;31721;41.740;-88.000;2023-03-03T12:25:37;97920.87;;;1.88;57.58
45991;BME280;31721;41.740;-88.000;2023-03-03T12:28:09;97906.10;;;1.82;56.91
45991;BME280;31721;41.740;-88.000;2023-03-03T12:30:58;97896.60;;;1.63;57.45
45991;BME280;31721;41.740;-88.000;2023-03-03T12:33:36;97910.03;;;1.78;57.53
45991;BME280;31721;41.740;-88.000;2023-03-03T12:36:20;97913.42;;;1.77;57.04
45991;BME280;31721;41.740;-88.000;2023-03-03T12:38:53;97905.91;;;1.71;57.70
45991;BME280;31721;41.740;-88.000;2023-03-03T12:41:28;97903.59;;;1.65;57.37
45991;BME280;31721;41.740;-88.000;2023-03-03T12:44:05;97904.83;;;1.52;58.34
45991;BME280;31721;41.740;-88.000;2023-03-03T12:46:45;97893.58;;;1.34;59.18
45991;BME280;31721;41.740;-88.000;2023-03-03T12:49:15;97883.43;;;1.70;57.59
45991;BME280;31721;41.740;-88.000;2023-03-03T12:51:53;97881.43;;;1.45;57.84
45991;BME280;31721;41.740;-88.000;2023-03-03T12:54:40;97893.01;;;1.68;57.70
45991;BME280;31721;41.740;-88.000;2023-03-03T12:57:21;97901.62;;;1.66;58.26
45991;BME280;31721;41.740;-88.000;2023-03-03T13:00:12;97921.15;;;1.77;57.38
45991;BME280;31721;41.740;-88.000;2023-03-03T13:02:55;97922.29;;;1.71;57.38
45991;BME280;31721;41.740;-88.000;2023-03-03T13:05:30;97906.86;;;1.39;59.00
45991;BME280;31721;41.740;-88.000;2023-03-03T13:08:12;97900.18;;;1.64;57.98
45991;BME280;31721;41.740;-88.000;2023-03-03T13:10:47;97920.16;;;1.71;57.85
45991;BME280;31721;41.740;-88.000;2023-03-03T13:13:25;97926.51;;;1.60;57.91
45991;BME280;31721;41.740;-88.000;2023-03-03T13:16:00;97932.25;;;1.72;58.06
45991;BME280;31721;41.740;-88.000;2023-03-03T13:18:38;97929.83;;;1.42;58.41